Главная страница
METAR-TAF:

METAR-TAF

Аэропорты :

Кувейт, Кувейт

широта: 29-13N, долгота: 047-59E, высота над уровнем моря: 55 м

Текущие метеонаблюдения

Эта сводка был подготовлена 31 минут назад, в 22:00 UTC
Ветер 6 Узел от северно-северо-западный
Температура 35°C
Влажность 18%
Давление 1001 hPa
Видимость 10 км и более
Нет облачности ниже 1500 м, и нет кучево-дождевой облачности

METAR: OKBK 212200Z 34006KT CAVOK 35/07 Q1001 NOSIG

Время: 01:31 (22:31 UTC)

Прогноз

Эта сводка был подготовлена 5 часа и 46 минут назад, в 16:45 UTC
Прогноз действительный с 21-го 18 UTC до 22-го 24 UTC
Ветер 10 Узел от северно-северо-западный
Видимость: 8000 м
ясное небо
временами
С 21-го 18 UTC до 21-го 22 UTC
Ветер 3 Узел переменных направлений

TAF: OKBK 211645Z 2118/2224 34010KT 8000 SKC TEMPO 2118/2122 VRB03KT

Метеонаблюдения и прогнозы для более 4000 аэропортов (сводки METAR и TAF).

Имеющиеся станции представлены на карте желтыми и красными точками.

Чтобы увидеть название станции, наведите на нее мышь.

Затем щелкните, чтобы увидеть метеонаблюдения и метеопрогнозы.

Управление картой: чтобы увеличить масштаб, щелкните зеленые кнопки с черным крестиком; чтобы уменьшить масштаб, щелкните зеленую кнопку с тире; для просмотра соседних карт щелкайте зеленые стрелки.


METAR-TAF: